createdAt,value
2023-03-02T00:05:29.531Z,62.83
2023-03-02T00:20:31.502Z,60.20
2023-03-02T00:35:41.371Z,56.33
2023-03-02T00:50:43.419Z,58.72
2023-03-02T01:05:45.418Z,63.55
2023-03-02T01:20:47.619Z,57.92
2023-03-02T01:35:50.002Z,69.78
2023-03-02T01:50:54.468Z,63.78
2023-03-02T02:06:02.258Z,64.05
2023-03-02T02:21:05.156Z,64.18
2023-03-02T02:36:16.105Z,62.85
2023-03-02T02:51:26.730Z,80.32
2023-03-02T03:06:38.540Z,66.38
2023-03-02T03:21:40.591Z,76.60
2023-03-02T03:36:43.652Z,74.53
2023-03-02T03:51:46.021Z,72.65
2023-03-02T04:06:48.377Z,65.55
2023-03-02T04:21:53.217Z,72.15
2023-03-02T04:36:55.758Z,72.03
2023-03-02T04:51:57.721Z,65.80
2023-03-02T05:07:00.104Z,65.80
2023-03-02T05:22:02.498Z,69.85
2023-03-02T05:37:04.534Z,73.30
2023-03-02T05:52:06.462Z,74.28
2023-03-02T06:07:08.889Z,79.65
2023-03-02T06:22:10.829Z,88.25
2023-03-02T06:37:12.856Z,84.40
2023-03-02T06:52:15.029Z,81.00
2023-03-02T07:07:17.019Z,80.75
2023-03-02T07:22:18.964Z,84.22
2023-03-02T07:37:21.000Z,92.25
2023-03-02T07:52:23.020Z,93.65
2023-03-02T08:07:25.064Z,107.95
2023-03-02T08:22:27.079Z,93.72
2023-03-02T08:37:29.084Z,82.25
2023-03-02T08:52:34.596Z,70.25
2023-03-02T09:07:36.614Z,71.57
2023-03-02T09:22:38.660Z,50.33
2023-03-02T09:37:42.258Z,50.42
2023-03-02T09:52:56.268Z,42.67
2023-03-02T10:07:59.446Z,36.80
2023-03-02T10:23:38.294Z,28.55
2023-03-02T10:38:40.445Z,29.95
2023-03-02T10:53:42.392Z,25.17
2023-03-02T11:08:44.789Z,24.98
2023-03-02T11:23:52.421Z,31.55
2023-03-02T11:38:55.662Z,31.33
2023-03-02T11:54:01.228Z,31.77
2023-03-02T12:09:38.266Z,35.63
2023-03-02T12:24:44.017Z,34.55
2023-03-02T12:39:45.960Z,33.90
2023-03-02T12:54:59.564Z,32.15
2023-03-02T13:10:08.342Z,34.25
2023-03-02T13:25:31.198Z,30.20
2023-03-02T13:40:37.995Z,26.17
2023-03-02T13:55:40.452Z,24.38
2023-03-02T14:10:43.467Z,22.25
2023-03-02T14:25:45.650Z,19.98
2023-03-02T14:40:47.907Z,18.88
2023-03-02T14:55:49.934Z,17.42
2023-03-02T15:10:51.947Z,18.30
2023-03-02T15:25:59.937Z,15.50
2023-03-02T15:41:07.466Z,12.33
2023-03-02T15:56:13.821Z,19.50
2023-03-02T16:11:18.918Z,15.02
2023-03-02T16:26:22.405Z,17.05
2023-03-02T16:41:24.841Z,48.78
2023-03-02T16:56:26.948Z,52.53
2023-03-02T17:11:31.995Z,50.00
2023-03-02T17:26:33.975Z,51.83
2023-03-02T17:41:37.795Z,49.35
2023-03-02T17:56:39.906Z,48.50
2023-03-02T18:11:42.504Z,48.92
2023-03-02T18:26:44.763Z,55.97
2023-03-02T18:41:46.715Z,57.72
2023-03-02T18:56:49.016Z,57.75
2023-03-02T19:11:51.252Z,59.22
2023-03-02T19:26:53.466Z,65.18
2023-03-02T19:41:55.465Z,58.45
2023-03-02T19:56:57.395Z,60.60
2023-03-02T20:12:00.343Z,62.17
2023-03-02T20:27:03.431Z,61.53
2023-03-02T20:42:07.320Z,67.88
2023-03-02T20:57:12.461Z,61.97
2023-03-02T21:12:14.536Z,66.93
2023-03-02T21:27:16.665Z,65.32
2023-03-02T21:42:18.663Z,60.60
2023-03-02T21:57:21.128Z,55.22
2023-03-02T22:12:24.198Z,67.05
2023-03-02T22:27:31.482Z,60.65
2023-03-02T22:42:33.958Z,54.57
2023-03-02T22:57:36.495Z,56.22
2023-03-02T23:12:46.917Z,55.65
2023-03-02T23:27:48.895Z,51.67
2023-03-02T23:42:51.265Z,54.67
2023-03-02T23:57:53.443Z,50.13
